Time;durP1;ratioP1;P1;durP2;ratioP2;P2;SDS_P1;SDS_P2;PMS_P1;PMS_P2;Temp;Humidity;BMP_temperature;BMP_pressure;BME280_temperature;BME280_humidity;BME280_pressure;Samples;Min_cycle;Max_cycle;Signal;HPM_P1;HPM_P2
2023/07/16 00:00:09;;;;;;;1.60;1.20;;;;;;;18.88;100.00;96714.13;5043106;28;20572;-62
2023/07/16 00:02:37;;;;;;;2.00;1.60;;;;;;;18.89;100.00;96702.38;5034381;28;20583;-62
2023/07/16 00:05:04;;;;;;;1.02;1.02;;;;;;;18.88;100.00;96729.41;5034451;28;20227;-64
2023/07/16 00:07:30;;;;;;;1.35;1.25;;;;;;;18.75;100.00;96730.09;5047979;28;20303;-63
2023/07/16 00:09:58;;;;;;;1.73;1.27;;;;;;;18.62;100.00;96724.59;5034892;28;20219;-64
2023/07/16 00:12:24;;;;;;;1.23;1.20;;;;;;;18.47;100.00;96709.56;5037684;28;20204;-63
2023/07/16 00:14:51;;;;;;;1.15;1.15;;;;;;;18.51;100.00;96711.72;5034725;28;20219;-65
2023/07/16 00:17:17;;;;;;;1.40;1.30;;;;;;;18.53;100.00;96717.69;5039548;28;20207;-64
2023/07/16 00:19:44;;;;;;;3.47;1.63;;;;;;;18.48;100.00;96706.72;5045730;28;20210;-63
2023/07/16 00:22:10;;;;;;;1.27;1.17;;;;;;;18.42;100.00;96709.31;5049280;28;20222;-63
2023/07/16 00:24:36;;;;;;;1.48;1.38;;;;;;;18.30;100.00;96699.09;5035323;28;20239;-62
2023/07/16 00:27:05;;;;;;;1.80;1.52;;;;;;;18.22;100.00;96695.72;5044232;28;20234;-62
2023/07/16 00:29:31;;;;;;;2.53;1.50;;;;;;;18.22;100.00;96703.75;5035064;28;20211;-62
2023/07/16 00:31:57;;;;;;;1.60;1.50;;;;;;;18.22;100.00;96701.91;5035082;28;20223;-63
2023/07/16 00:34:24;;;;;;;1.58;1.48;;;;;;;18.38;100.00;96695.50;5034919;28;20207;-64
2023/07/16 00:36:50;;;;;;;1.77;1.67;;;;;;;18.38;100.00;96695.50;5034570;28;20207;-62
2023/07/16 00:39:17;;;;;;;1.60;1.50;;;;;;;18.24;100.00;96693.69;5053323;28;20556;-64
2023/07/16 00:41:43;;;;;;;2.00;1.30;;;;;;;18.07;100.00;96682.38;5034739;28;20207;-64
2023/07/16 00:44:11;;;;;;;1.80;1.38;;;;;;;18.10;100.00;96671.31;5033338;28;20242;-63
2023/07/16 00:46:38;;;;;;;1.88;1.52;;;;;;;18.00;100.00;96685.97;5047357;28;20285;-62
2023/07/16 00:49:04;;;;;;;2.17;1.70;;;;;;;17.98;100.00;96704.06;5033879;28;20223;-63
2023/07/16 00:51:31;;;;;;;2.03;1.52;;;;;;;17.87;100.00;96698.19;5033939;28;20561;-61
2023/07/16 00:53:57;;;;;;;1.38;1.23;;;;;;;17.81;100.00;96703.47;5036321;28;20215;-62
2023/07/16 00:56:24;;;;;;;1.65;1.55;;;;;;;17.79;100.00;96703.66;5037669;28;20218;-62
2023/07/16 00:58:50;;;;;;;2.50;1.58;;;;;;;17.86;100.00;96712.59;5050337;28;20520;-62
2023/07/16 01:01:18;;;;;;;2.00;1.30;;;;;;;17.74;100.00;96708.75;5057433;28;20526;-64
2023/07/16 01:03:44;;;;;;;3.13;1.92;;;;;;;17.73;100.00;96695.53;5057340;28;20211;-64
2023/07/16 01:06:13;;;;;;;1.80;1.70;;;;;;;17.86;100.00;96699.19;5044830;28;20284;-62
2023/07/16 01:08:42;;;;;;;1.80;1.60;;;;;;;17.78;100.00;96693.94;5056958;28;20698;-62
2023/07/16 01:11:10;;;;;;;2.17;1.88;;;;;;;17.86;100.00;96699.19;5057489;28;20203;-63
2023/07/16 01:13:37;;;;;;;1.80;1.70;;;;;;;17.94;100.00;96695.59;5056755;28;20581;-62
2023/07/16 01:16:04;;;;;;;1.73;1.52;;;;;;;18.05;100.00;96705.00;5057013;28;20235;-63
2023/07/16 01:18:31;;;;;;;1.55;1.55;;;;;;;18.08;100.00;96716.16;5057324;28;20207;-63
2023/07/16 01:20:58;;;;;;;1.73;1.63;;;;;;;18.10;100.00;96724.00;5056827;28;20623;-62
2023/07/16 01:23:38;;;;;;;1.83;1.13;;;;;;;18.12;100.00;96705.91;5056759;28;20635;-63
2023/07/16 01:26:19;;;;;;;2.53;1.38;;;;;;;18.12;100.00;96716.59;5057146;28;20219;-62
2023/07/16 01:29:16;;;;;;;2.25;1.67;;;;;;;18.13;100.00;96715.59;5056741;28;20203;-63
2023/07/16 01:31:44;;;;;;;1.45;1.30;;;;;;;18.13;100.00;96732.47;5056532;28;20258;-63
2023/07/16 01:34:11;;;;;;;1.48;1.38;;;;;;;18.15;100.00;96725.09;5057109;28;20214;-62
2023/07/16 01:36:38;;;;;;;1.70;1.60;;;;;;;18.19;100.00;96726.38;5056812;28;20268;-63
2023/07/16 01:39:05;;;;;;;1.85;1.70;;;;;;;18.17;100.00;96727.59;5056321;28;20218;-63
2023/07/16 01:41:31;;;;;;;2.80;1.60;;;;;;;18.23;100.00;96729.50;5043635;28;20218;-63
2023/07/16 01:43:57;;;;;;;1.70;1.60;;;;;;;18.22;100.00;96734.03;5045313;28;20226;-62
2023/07/16 01:46:24;;;;;;;1.70;1.60;;;;;;;18.23;100.00;96732.19;5042855;28;20211;-63
2023/07/16 01:48:52;;;;;;;1.83;1.73;;;;;;;18.32;100.00;96733.72;5045099;28;20212;-63
2023/07/16 01:51:20;;;;;;;1.83;1.73;;;;;;;18.28;100.00;96743.16;5052135;28;20644;-63
2023/07/16 01:53:46;;;;;;;2.30;1.73;;;;;;;18.25;100.00;96744.34;5037261;28;20273;-63
2023/07/16 01:56:13;;;;;;;1.90;1.80;;;;;;;18.20;100.00;96752.13;5037114;28;20211;-62
2023/07/16 01:58:41;;;;;;;2.70;2.05;;;;;;;18.25;100.00;96767.59;5037032;28;20208;-65
2023/07/16 02:01:07;;;;;;;2.30;1.60;;;;;;;18.23;100.00;96786.56;5037193;28;20222;-63
2023/07/16 02:03:33;;;;;;;1.83;1.70;;;;;;;18.21;100.00;96777.06;5041076;28;20204;-64
2023/07/16 02:06:01;;;;;;;2.70;1.90;;;;;;;18.20;100.00;96767.34;5045479;28;20254;-65
2023/07/16 02:08:28;;;;;;;2.67;2.03;;;;;;;18.14;100.00;96766.25;5042456;28;20219;-63
2023/07/16 02:10:54;;;;;;;3.65;2.40;;;;;;;18.09;100.00;96768.66;5041485;28;20215;-63
2023/07/16 02:13:20;;;;;;;3.33;2.38;;;;;;;18.04;100.00;96748.81;5041561;28;20211;-64
2023/07/16 02:15:48;;;;;;;2.85;2.20;;;;;;;18.12;100.00;96749.56;5039189;28;20232;-63
2023/07/16 02:18:14;;;;;;;2.63;1.90;;;;;;;17.97;100.00;96745.22;5052255;28;20214;-65
2023/07/16 02:20:41;;;;;;;2.25;2.05;;;;;;;17.99;100.00;96748.56;5043954;28;20208;-63
2023/07/16 02:23:11;;;;;;;2.72;2.13;;;;;;;17.95;100.00;96736.56;5048148;28;20552;-63
2023/07/16 02:25:38;;;;;;;2.30;2.10;;;;;;;17.89;100.00;96728.25;5046569;28;20238;-62
2023/07/16 02:28:04;;;;;;;1.95;1.85;;;;;;;17.94;100.00;96741.09;5058996;28;20211;-64
2023/07/16 02:30:31;;;;;;;5.70;1.88;;;;;;;17.97;100.00;96742.53;5035970;28;20667;-62
2023/07/16 02:32:57;;;;;;;1.85;1.73;;;;;;;17.95;100.00;96763.31;5036201;28;20238;-63
2023/07/16 02:35:24;;;;;;;2.40;2.20;;;;;;;17.82;100.00;96754.09;5036118;28;20291;-64
2023/07/16 02:37:50;;;;;;;2.10;1.77;;;;;;;17.91;100.00;96746.81;5043721;28;20199;-62
2023/07/16 02:40:18;;;;;;;3.08;2.33;;;;;;;17.90;100.00;96766.53;5048234;28;20203;-66
2023/07/16 02:42:45;;;;;;;2.25;2.05;;;;;;;17.89;100.00;96763.03;5035121;28;20695;-62
2023/07/16 02:45:11;;;;;;;2.10;1.90;;;;;;;17.86;100.00;96749.19;5035580;28;20234;-63
2023/07/16 02:47:38;;;;;;;2.78;2.10;;;;;;;17.84;100.00;96757.44;5035752;28;20238;-63
2023/07/16 02:50:05;;;;;;;1.98;1.88;;;;;;;17.88;100.00;96753.38;5035912;28;20211;-61
2023/07/16 02:52:31;;;;;;;5.00;2.50;;;;;;;17.83;100.00;96731.69;5035707;28;20541;-63
2023/07/16 02:54:58;;;;;;;2.25;1.83;;;;;;;17.78;100.00;96731.41;5035926;28;20204;-62
2023/07/16 02:57:25;;;;;;;1.90;1.80;;;;;;;17.79;100.00;96751.78;5036085;28;20218;-63
2023/07/16 02:59:52;;;;;;;2.05;1.92;;;;;;;17.79;100.00;96754.47;5035903;28;20207;-63
2023/07/16 03:02:18;;;;;;;2.15;1.95;;;;;;;17.72;100.00;96750.88;5036541;28;20843;-63
2023/07/16 03:04:45;;;;;;;2.40;2.08;;;;;;;17.82;100.00;96754.09;5035194;28;20639;-62
2023/07/16 03:07:11;;;;;;;2.00;1.90;;;;;;;17.80;100.00;96747.28;5048584;28;20265;-64
2023/07/16 03:09:38;;;;;;;3.05;2.42;;;;;;;17.81;100.00;96757.81;5035408;28;20603;-63
2023/07/16 03:12:05;;;;;;;2.20;2.10;;;;;;;17.75;100.00;96774.56;5038338;28;20298;-63
2023/07/16 03:14:36;;;;;;;2.90;1.88;;;;;;;17.80;100.00;96772.19;5035893;28;20212;-63
2023/07/16 03:17:02;;;;;;;2.65;1.75;;;;;;;17.74;100.00;96762.22;5036375;28;20219;-63
2023/07/16 03:19:28;;;;;;;2.40;2.20;;;;;;;17.74;100.00;96772.09;5047056;28;20290;-64
2023/07/16 03:21:55;;;;;;;4.53;2.08;;;;;;;17.83;100.00;96803.91;5038874;28;20211;-63
2023/07/16 03:24:21;;;;;;;2.45;2.25;;;;;;;17.76;100.00;96784.25;5035325;28;20628;-62
2023/07/16 03:26:48;;;;;;;5.00;2.38;;;;;;;17.66;100.00;96766.81;5044503;28;20235;-62
2023/07/16 03:29:15;;;;;;;4.40;2.15;;;;;;;17.64;100.00;96775.03;5044765;28;20211;-63
2023/07/16 03:31:43;;;;;;;2.47;2.28;;;;;;;17.65;100.00;96766.00;5038037;28;20238;-62
2023/07/16 03:34:10;;;;;;;4.25;2.30;;;;;;;17.75;100.00;96758.53;5035337;28;20266;-62
2023/07/16 03:36:36;;;;;;;2.58;2.10;;;;;;;17.79;100.00;96757.13;5034913;28;20289;-62
2023/07/16 03:39:03;;;;;;;2.15;1.92;;;;;;;17.81;100.00;96768.50;5052647;28;20222;-63
2023/07/16 03:41:30;;;;;;;4.40;2.38;;;;;;;17.75;100.00;96768.38;5037125;28;20203;-62
2023/07/16 03:43:56;;;;;;;3.15;1.90;;;;;;;17.74;100.00;96764.91;5034214;28;20215;-63
2023/07/16 03:46:27;;;;;;;2.30;2.10;;;;;;;17.72;100.00;96768.75;5034684;28;20228;-62
2023/07/16 03:48:55;;;;;;;1.95;1.85;;;;;;;17.72;100.00;96768.75;5034871;28;20208;-63
2023/07/16 03:51:21;;;;;;;2.40;2.20;;;;;;;17.67;100.00;96772.00;5034716;28;20636;-63
2023/07/16 03:53:48;;;;;;;3.38;2.00;;;;;;;17.66;100.00;96773.00;5041089;28;20208;-64
2023/07/16 03:56:14;;;;;;;1.98;1.88;;;;;;;17.65;100.00;96783.88;5041401;28;20211;-63
2023/07/16 03:58:41;;;;;;;2.45;2.25;;;;;;;17.55;100.00;96776.09;5045934;28;20215;-64
2023/07/16 04:01:07;;;;;;;3.13;2.45;;;;;;;17.58;100.00;96765.06;5042589;28;20576;-64
2023/07/16 04:03:34;;;;;;;3.65;2.17;;;;;;;17.57;100.00;96776.78;5043466;28;20215;-63
2023/07/16 04:06:06;;;;;;;2.80;1.95;;;;;;;17.54;100.00;96787.81;5058874;28;20254;-63
2023/07/16 04:08:33;;;;;;;2.17;1.52;;;;;;;17.55;100.00;96785.97;5057227;28;20612;-64
2023/07/16 04:10:59;;;;;;;1.80;1.70;;;;;;;17.56;100.00;96788.50;5059891;28;20208;-62
2023/07/16 04:13:26;;;;;;;2.20;2.10;;;;;;;17.55;100.00;96789.47;5048220;28;20219;-62
2023/07/16 04:15:54;;;;;;;3.72;2.13;;;;;;;17.52;100.00;96784.50;5058667;28;20676;-63
2023/07/16 04:18:21;;;;;;;3.13;2.05;;;;;;;17.49;100.00;96792.88;5045717;28;20235;-66
2023/07/16 04:20:48;;;;;;;1.83;1.67;;;;;;;17.57;100.00;96800.03;5056315;28;20199;-62
2023/07/16 04:23:16;;;;;;;2.92;1.80;;;;;;;17.57;100.00;96798.16;5049796;28;20227;-63
2023/07/16 04:25:42;;;;;;;2.75;2.00;;;;;;;17.45;100.00;96788.06;5042689;28;20222;-63
2023/07/16 04:28:09;;;;;;;2.25;1.80;;;;;;;17.45;100.00;96794.25;5046631;28;20237;-63
2023/07/16 04:30:37;;;;;;;2.20;2.10;;;;;;;17.46;100.00;96806.63;5040250;28;20302;-63
2023/07/16 04:33:06;;;;;;;2.28;2.08;;;;;;;17.54;100.00;96806.53;5051869;28;20333;-64
2023/07/16 04:35:33;;;;;;;2.65;1.80;;;;;;;17.56;100.00;96807.22;5036101;28;20212;-62
2023/07/16 04:37:59;;;;;;;3.00;2.08;;;;;;;17.59;100.00;96820.22;5043948;28;20203;-64
2023/07/16 04:40:29;;;;;;;2.05;1.70;;;;;;;17.60;100.00;96815.72;5045267;28;20211;-63
2023/07/16 04:42:55;;;;;;;2.95;2.75;;;;;;;17.63;100.00;96823.38;5034012;28;20211;-64
2023/07/16 04:45:22;;;;;;;2.13;2.03;;;;;;;17.59;100.00;96817.56;5036783;28;20228;-65
2023/07/16 04:47:48;;;;;;;4.63;2.10;;;;;;;17.64;100.00;96815.13;5040563;28;20310;-65
2023/07/16 04:50:15;;;;;;;1.85;1.75;;;;;;;17.63;100.00;96818.03;5056854;28;20206;-64
2023/07/16 04:52:41;;;;;;;2.15;2.05;;;;;;;17.71;100.00;96808.03;5040253;28;20218;-64
2023/07/16 04:55:08;;;;;;;2.38;2.17;;;;;;;17.70;100.00;96793.03;5038060;28;20417;-64
2023/07/16 04:57:36;;;;;;;3.20;1.80;;;;;;;17.84;100.00;96805.59;5037308;28;20219;-64
2023/07/16 05:00:05;;;;;;;2.33;1.92;;;;;;;17.90;100.00;96825.41;5036805;28;20222;-64
2023/07/16 05:02:32;;;;;;;3.85;1.95;;;;;;;17.91;100.00;96835.09;5040098;28;20230;-64
2023/07/16 05:04:59;;;;;;;2.30;2.08;;;;;;;17.92;100.00;96843.97;5056866;28;20203;-63
2023/07/16 05:07:25;;;;;;;2.10;2.00;;;;;;;17.94;100.00;96850.78;5041433;28;20641;-63
2023/07/16 05:09:52;;;;;;;2.00;1.90;;;;;;;17.92;100.00;96859.00;5034168;28;20624;-63
2023/07/16 05:12:18;;;;;;;2.20;2.00;;;;;;;17.98;100.00;96851.25;5041221;28;20214;-62
2023/07/16 05:14:47;;;;;;;3.00;2.20;;;;;;;18.00;100.00;96828.63;5042098;28;20282;-63
2023/07/16 05:17:14;;;;;;;2.13;1.80;;;;;;;18.05;100.00;96820.06;5037113;28;20207;-62
2023/07/16 05:19:41;;;;;;;2.67;2.00;;;;;;;18.13;100.00;96825.34;5045481;28;20264;-65
2023/07/16 05:22:08;;;;;;;2.20;2.00;;;;;;;18.11;100.00;96827.34;5035262;28;20278;-64
2023/07/16 05:24:36;;;;;;;4.50;2.33;;;;;;;18.07;100.00;96831.41;5033758;28;20230;-62
2023/07/16 05:27:02;;;;;;;1.85;1.75;;;;;;;18.07;100.00;96826.06;5033631;28;20242;-65
2023/07/16 05:29:29;;;;;;;2.30;2.00;;;;;;;18.15;100.00;96808.06;5033340;28;20277;-64
2023/07/16 05:31:57;;;;;;;2.25;2.05;;;;;;;18.01;100.00;96800.03;5039697;28;20281;-62
2023/07/16 05:34:23;;;;;;;2.13;2.03;;;;;;;18.10;100.00;96782.88;5040794;28;20212;-63
2023/07/16 05:36:50;;;;;;;2.10;2.00;;;;;;;18.11;100.00;96789.88;5033440;28;20591;-64
2023/07/16 05:39:16;;;;;;;2.40;2.15;;;;;;;18.09;100.00;96803.47;5052599;28;20207;-64
2023/07/16 05:41:43;;;;;;;2.53;2.33;;;;;;;18.15;100.00;96812.56;5037149;28;20218;-63
2023/07/16 05:44:11;;;;;;;1.98;1.88;;;;;;;18.21;100.00;96822.56;5049551;28;20562;-63
2023/07/16 05:46:37;;;;;;;2.53;2.40;;;;;;;18.10;100.00;96825.72;5036966;28;20691;-62
2023/07/16 05:49:05;;;;;;;1.98;1.80;;;;;;;18.03;100.00;96820.22;5050064;28;20241;-61
2023/07/16 05:51:32;;;;;;;2.33;2.20;;;;;;;18.09;100.00;96819.53;5050371;28;20204;-62
2023/07/16 05:53:58;;;;;;;2.88;2.05;;;;;;;18.22;100.00;96818.84;5036900;28;20219;-62
2023/07/16 05:56:25;;;;;;;2.17;2.08;;;;;;;18.33;100.00;96815.69;5036833;28;20214;-63
2023/07/16 05:58:51;;;;;;;2.15;2.05;;;;;;;18.46;100.00;96815.84;5037114;28;20222;-61
2023/07/16 06:01:17;;;;;;;3.53;2.20;;;;;;;18.54;100.00;96815.78;5037488;28;20212;-63
2023/07/16 06:03:44;;;;;;;2.78;2.58;;;;;;;18.66;100.00;96818.81;5049612;28;20327;-68
2023/07/16 06:06:14;;;;;;;2.88;2.40;;;;;;;18.80;100.00;96810.72;5046124;28;20223;-63
2023/07/16 06:08:43;;;;;;;2.85;2.65;;;;;;;18.96;100.00;96800.75;5071215;28;20195;-67
2023/07/16 06:11:10;;;;;;;3.65;2.83;;;;;;;19.09;100.00;96800.91;5055575;28;20220;-63
2023/07/16 06:13:36;;;;;;;3.38;2.50;;;;;;;19.35;100.00;96795.75;5056395;28;20290;-62
2023/07/16 06:16:05;;;;;;;2.83;2.63;;;;;;;19.59;100.00;96795.34;5055724;28;20242;-63
2023/07/16 06:18:32;;;;;;;2.40;2.30;;;;;;;19.53;100.00;96804.19;5055877;28;20611;-64
2023/07/16 06:20:58;;;;;;;2.58;2.40;;;;;;;19.60;100.00;96818.50;5055919;28;20634;-65
2023/07/16 06:23:26;;;;;;;2.65;2.45;;;;;;;19.64;100.00;96808.19;5058026;28;20643;-63
2023/07/16 06:25:55;;;;;;;2.30;2.20;;;;;;;19.81;100.00;96807.69;5063507;28;20211;-65
2023/07/16 06:28:21;;;;;;;2.80;2.60;;;;;;;20.01;100.00;96802.47;5063686;28;20218;-68
2023/07/16 06:30:48;;;;;;;2.42;2.30;;;;;;;19.87;100.00;96806.91;5064852;28;20218;-64
2023/07/16 06:33:14;;;;;;;2.63;2.42;;;;;;;19.98;100.00;96799.34;5056223;28;20215;-63
2023/07/16 06:35:41;;;;;;;2.40;2.30;;;;;;;20.03;100.00;96804.94;5056217;28;20207;-64
2023/07/16 06:38:07;;;;;;;2.60;2.40;;;;;;;19.87;100.00;96809.59;5055171;28;20208;-63
2023/07/16 06:40:35;;;;;;;3.17;2.50;;;;;;;19.90;100.00;96810.25;5045847;28;20219;-63
2023/07/16 06:43:01;;;;;;;3.83;2.40;;;;;;;19.86;100.00;96816.00;5035762;28;20226;-65
2023/07/16 06:45:28;;;;;;;2.25;2.15;;;;;;;19.83;100.00;96820.94;5035888;28;20219;-63
2023/07/16 06:47:54;;;;;;;2.42;2.33;;;;;;;19.69;100.00;96829.91;5035913;28;20227;-65
2023/07/16 06:50:21;;;;;;;2.20;2.10;;;;;;;19.66;100.00;96835.69;5046593;28;20211;-63
2023/07/16 06:52:47;;;;;;;2.17;1.92;;;;;;;19.65;100.00;96829.47;5037714;28;20211;-64
2023/07/16 06:55:14;;;;;;;2.05;1.95;;;;;;;19.58;100.00;96822.41;5036030;28;20212;-62
2023/07/16 06:57:42;;;;;;;2.53;2.33;;;;;;;19.52;100.00;96824.00;5039732;28;20233;-62
2023/07/16 07:00:11;;;;;;;1.98;1.88;;;;;;;19.40;100.00;96825.53;5044274;28;20226;-63
2023/07/16 07:02:37;;;;;;;2.28;2.08;;;;;;;19.32;100.00;96820.28;5035503;28;20252;-63
2023/07/16 07:05:04;;;;;;;2.42;1.80;;;;;;;19.27;100.00;96814.69;5035906;28;20224;-63
2023/07/16 07:07:30;;;;;;;1.90;1.80;;;;;;;19.14;100.00;96814.56;5035396;28;20235;-64
2023/07/16 07:09:57;;;;;;;1.98;1.88;;;;;;;19.17;100.00;96806.13;5035576;28;20212;-63
2023/07/16 07:12:23;;;;;;;4.30;1.90;;;;;;;19.08;100.00;96796.56;5037826;28;20199;-62
2023/07/16 07:14:51;;;;;;;2.33;2.10;;;;;;;18.98;100.00;96788.03;5046874;28;20211;-62
2023/07/16 07:17:18;;;;;;;2.47;2.28;;;;;;;18.88;100.00;96805.22;5039763;28;20237;-65
2023/07/16 07:19:44;;;;;;;3.13;2.30;;;;;;;18.99;100.00;96801.22;5046258;28;20199;-63
2023/07/16 07:22:11;;;;;;;2.00;1.90;;;;;;;19.02;100.00;96806.22;5050551;28;20208;-64
2023/07/16 07:24:37;;;;;;;2.63;1.95;;;;;;;18.86;100.00;96807.28;5035924;28;20211;-64
2023/07/16 07:27:04;;;;;;;2.90;1.85;;;;;;;18.73;100.00;96811.69;5040144;28;20231;-64
2023/07/16 07:29:31;;;;;;;2.05;1.70;;;;;;;18.73;100.00;96825.91;5035308;28;20203;-64
2023/07/16 07:32:00;;;;;;;2.90;1.92;;;;;;;18.68;100.00;96833.66;5048776;28;20208;-63
2023/07/16 07:34:27;;;;;;;2.83;1.90;;;;;;;18.63;100.00;96830.75;5035263;28;20207;-63
2023/07/16 07:36:53;;;;;;;2.85;1.83;;;;;;;18.65;100.00;96822.50;5036038;28;20204;-63
2023/07/16 07:39:20;;;;;;;3.40;1.83;;;;;;;18.69;100.00;96819.25;5054265;28;20203;-68
2023/07/16 07:41:46;;;;;;;2.03;1.90;;;;;;;18.75;100.00;96813.13;5034697;28;20641;-63
2023/07/16 07:44:13;;;;;;;2.55;1.65;;;;;;;18.80;100.00;96801.84;5034634;28;20208;-66
2023/07/16 07:46:39;;;;;;;2.60;2.00;;;;;;;18.87;100.00;96800.91;5034735;28;20234;-63
2023/07/16 07:49:07;;;;;;;3.25;2.05;;;;;;;19.12;100.00;96803.22;5034608;28;20222;-63
2023/07/16 07:51:33;;;;;;;4.07;2.75;;;;;;;19.43;100.00;96792.16;5041632;28;20214;-62
2023/07/16 07:54:00;;;;;;;2.60;2.40;;;;;;;19.57;100.00;96800.09;5040966;28;20222;-63
2023/07/16 07:56:28;;;;;;;2.05;1.77;;;;;;;19.58;100.00;96807.13;5041613;28;20634;-65
2023/07/16 07:58:55;;;;;;;2.95;1.80;;;;;;;19.63;100.00;96802.00;5040274;28;20608;-63
2023/07/16 08:01:21;;;;;;;2.00;1.80;;;;;;;19.66;100.00;96806.97;5035230;28;20346;-62
2023/07/16 08:03:47;;;;;;;3.13;2.10;;;;;;;19.65;100.00;96797.28;5034391;28;20207;-65
2023/07/16 08:06:15;;;;;;;4.45;2.00;;;;;;;19.60;100.00;96814.97;5034530;28;20207;-66
2023/07/16 08:08:42;;;;;;;3.38;2.20;;;;;;;19.54;100.00;96815.75;5034101;28;20656;-63
2023/07/16 08:11:08;;;;;;;2.40;1.90;;;;;;;19.61;100.00;96817.47;5041664;28;20214;-63
2023/07/16 08:13:34;;;;;;;1.65;1.52;;;;;;;19.61;100.00;96820.16;5039369;28;20203;-64
2023/07/16 08:16:01;;;;;;;2.92;2.00;;;;;;;19.66;100.00;96804.28;5033870;28;20242;-64
2023/07/16 08:18:27;;;;;;;3.55;2.28;;;;;;;19.63;100.00;96810.03;5047190;28;20210;-66
2023/07/16 08:20:54;;;;;;;3.65;2.10;;;;;;;19.62;100.00;96813.78;5040570;28;20207;-62
2023/07/16 08:23:23;;;;;;;2.47;1.70;;;;;;;19.62;100.00;96819.16;5034344;28;20215;-64
2023/07/16 08:25:50;;;;;;;3.75;2.30;;;;;;;19.52;100.00;96824.00;5043285;28;20207;-63
2023/07/16 08:28:17;;;;;;;3.70;2.20;;;;;;;19.52;100.00;96824.00;5055308;28;20233;-64
2023/07/16 08:30:44;;;;;;;3.63;2.00;;;;;;;19.51;100.00;96816.16;5054293;28;20217;-63
2023/07/16 08:33:11;;;;;;;3.90;3.28;;;;;;;19.53;100.00;96819.47;5053681;28;20217;-62
2023/07/16 08:35:38;;;;;;;3.38;2.13;;;;;;;19.48;100.00;96806.66;5053883;28;20222;-65
2023/07/16 08:38:04;;;;;;;2.65;2.17;;;;;;;19.44;100.00;96788.44;5053293;28;20208;-62
2023/07/16 08:40:32;;;;;;;3.03;2.05;;;;;;;19.43;100.00;96779.56;5044772;28;20215;-64
2023/07/16 08:42:59;;;;;;;2.63;1.80;;;;;;;19.39;100.00;96786.31;5034132;28;20211;-62
2023/07/16 08:45:26;;;;;;;3.03;2.08;;;;;;;19.52;100.00;96781.06;5034107;28;20215;-64
2023/07/16 08:47:53;;;;;;;2.83;2.10;;;;;;;19.61;100.00;96785.28;5047398;28;20983;-63
2023/07/16 08:50:21;;;;;;;3.67;2.28;;;;;;;19.87;100.00;96790.81;5043996;28;20376;-62
2023/07/16 08:52:48;;;;;;;3.20;2.30;;;;;;;20.21;100.00;96775.72;5037156;28;20209;-63
2023/07/16 08:55:14;;;;;;;2.42;2.17;;;;;;;20.48;100.00;96782.88;5040172;28;20203;-64
2023/07/16 08:57:43;;;;;;;4.57;2.33;;;;;;;20.71;100.00;96804.03;5040711;28;20206;-63
2023/07/16 09:00:10;;;;;;;2.25;1.65;;;;;;;20.91;100.00;96814.81;5044697;28;20644;-64
2023/07/16 09:02:36;;;;;;;2.63;2.10;;;;;;;20.96;100.00;96828.50;5055816;28;20218;-62
2023/07/16 09:05:03;;;;;;;3.20;1.88;;;;;;;21.01;100.00;96826.06;5034182;28;20208;-63
2023/07/16 09:07:30;;;;;;;3.90;2.20;;;;;;;21.04;100.00;96818.41;5033682;28;20239;-63
2023/07/16 09:09:59;;;;;;;1.88;1.75;;;;;;;21.01;100.00;96823.34;5033866;28;20543;-63
2023/07/16 09:12:26;;;;;;;5.22;2.42;;;;;;;20.80;100.00;96818.94;5037224;28;20270;-66
2023/07/16 09:14:54;;;;;;;4.72;2.35;;;;;;;20.96;100.00;96815.91;5034165;28;20203;-63
2023/07/16 09:17:22;;;;;;;3.00;1.95;;;;;;;21.00;99.03;96824.38;5037753;28;20535;-63
2023/07/16 09:19:49;;;;;;;2.25;1.92;;;;;;;20.94;99.54;96827.91;5042144;28;20269;-63
2023/07/16 09:22:20;;;;;;;1.75;1.65;;;;;;;21.03;100.00;96830.19;5038787;28;20218;-66
2023/07/16 09:24:47;;;;;;;3.13;2.08;;;;;;;21.06;100.00;96829.78;5038030;28;20220;-62
2023/07/16 09:27:14;;;;;;;1.98;1.88;;;;;;;21.19;100.00;96835.19;5047755;28;20282;-62
2023/07/16 09:29:40;;;;;;;2.47;2.15;;;;;;;21.15;100.00;96833.13;5037172;28;20207;-64
2023/07/16 09:32:10;;;;;;;2.40;2.08;;;;;;;21.00;97.72;96825.22;5050903;28;20542;-64
2023/07/16 09:34:37;;;;;;;2.75;1.80;;;;;;;21.00;97.17;96819.00;5050668;28;20765;-62
2023/07/16 09:37:05;;;;;;;4.07;2.17;;;;;;;21.01;96.40;96815.28;5039525;28;20234;-64
2023/07/16 09:39:33;;;;;;;3.03;2.03;;;;;;;21.17;94.12;96820.31;5054644;28;20554;-64
2023/07/16 09:41:59;;;;;;;2.60;2.08;;;;;;;21.24;95.95;96827.34;5037831;28;20212;-62
2023/07/16 09:44:26;;;;;;;3.50;1.75;;;;;;;21.24;94.58;96831.91;5036684;28;20212;-65
2023/07/16 09:46:53;;;;;;;2.20;2.00;;;;;;;21.12;91.17;96822.75;5037064;28;20224;-63
2023/07/16 09:49:22;;;;;;;4.25;1.75;;;;;;;21.15;93.78;96825.88;5036921;28;20641;-65
2023/07/16 09:51:49;;;;;;;2.35;1.95;;;;;;;21.17;94.99;96831.06;5036669;28;20222;-63
2023/07/16 09:54:15;;;;;;;3.75;2.10;;;;;;;21.17;95.79;96831.06;5050359;28;20237;-64
2023/07/16 09:56:45;;;;;;;3.53;2.22;;;;;;;21.12;97.58;96825.47;5036976;28;20223;-64
2023/07/16 09:59:14;;;;;;;2.47;2.00;;;;;;;21.17;98.07;96821.13;5036096;28;20250;-62
2023/07/16 10:01:41;;;;;;;3.10;1.90;;;;;;;21.12;97.38;96818.22;5037111;28;20211;-62
2023/07/16 10:04:12;;;;;;;2.50;1.98;;;;;;;21.02;96.23;96819.63;5052830;28;20211;-64
2023/07/16 10:06:58;;;;;;;2.55;1.85;;;;;;;21.04;100.00;96820.25;5056518;28;20206;-63
2023/07/16 10:09:35;;;;;;;2.33;1.65;;;;;;;20.88;94.09;96828.69;5059246;28;20214;-63
2023/07/16 10:12:18;;;;;;;2.55;2.28;;;;;;;20.85;96.26;96821.84;5056933;28;20574;-63
2023/07/16 10:14:47;;;;;;;4.72;2.15;;;;;;;20.91;97.99;96825.59;5055964;28;20223;-65
2023/07/16 10:17:15;;;;;;;2.88;2.10;;;;;;;20.93;95.50;96826.22;5056207;28;20203;-63
2023/07/16 10:19:58;;;;;;;3.42;1.98;;;;;;;20.99;98.80;96826.25;5049295;28;20206;-63
2023/07/16 10:22:36;;;;;;;3.78;2.25;;;;;;;21.03;98.70;96821.28;5049934;28;20627;-63
2023/07/16 10:25:04;;;;;;;3.28;2.38;;;;;;;21.13;100.00;96819.06;5036578;28;20207;-63
2023/07/16 10:27:32;;;;;;;3.40;1.83;;;;;;;21.15;95.81;96823.19;5046690;28;20235;-66
2023/07/16 10:30:01;;;;;;;4.20;2.17;;;;;;;21.35;98.55;96828.59;5037366;28;20204;-65
2023/07/16 10:32:29;;;;;;;5.50;2.28;;;;;;;21.69;100.00;96831.09;5036551;28;20555;-64
2023/07/16 10:34:55;;;;;;;4.65;2.17;;;;;;;21.80;94.54;96826.94;5036341;28;20212;-62
2023/07/16 10:37:22;;;;;;;3.25;2.08;;;;;;;21.89;92.11;96824.88;5044930;28;20203;-63
2023/07/16 10:39:50;;;;;;;3.35;1.98;;;;;;;22.00;94.27;96829.66;5051294;28;20774;-64
2023/07/16 10:42:17;;;;;;;2.63;2.00;;;;;;;22.12;94.33;96823.41;5036058;28;20207;-64
2023/07/16 10:44:44;;;;;;;3.05;2.28;;;;;;;22.28;95.42;96824.81;5035651;28;20215;-62
2023/07/16 10:47:20;;;;;;;2.58;2.13;;;;;;;22.39;94.35;96824.13;5035766;28;20231;-62
2023/07/16 10:49:46;;;;;;;2.63;1.80;;;;;;;22.36;90.12;96821.03;5054691;28;20264;-62
2023/07/16 10:52:12;;;;;;;3.72;2.38;;;;;;;22.35;88.60;96814.03;5055673;28;20214;-65
2023/07/16 10:54:40;;;;;;;2.58;2.28;;;;;;;22.52;88.82;96810.63;5042334;28;20269;-63
2023/07/16 10:57:08;;;;;;;2.20;2.00;;;;;;;22.73;87.69;96817.63;5043435;28;20214;-63
2023/07/16 10:59:38;;;;;;;2.47;1.90;;;;;;;22.90;89.49;96823.34;5035319;28;20649;-63
2023/07/16 11:02:07;;;;;;;4.30;1.88;;;;;;;22.89;89.74;96810.88;5036105;28;20220;-68
2023/07/16 11:04:36;;;;;;;2.65;2.25;;;;;;;22.89;90.96;96806.31;5035358;28;20286;-64
2023/07/16 11:07:08;;;;;;;3.70;2.20;;;;;;;22.92;92.56;96803.19;5034873;28;20272;-63
2023/07/16 11:09:34;;;;;;;3.65;2.17;;;;;;;23.08;89.45;96802.69;5035528;28;20562;-63
2023/07/16 11:12:07;;;;;;;2.53;2.03;;;;;;;23.28;90.02;96805.25;5048476;28;20624;-63
2023/07/16 11:14:34;;;;;;;3.45;3.15;;;;;;;23.31;85.98;96805.63;5041878;28;20203;-63
2023/07/16 11:17:05;;;;;;;2.40;2.20;;;;;;;23.23;82.86;96797.00;5036756;28;20207;-64
2023/07/16 11:19:32;;;;;;;2.92;2.38;;;;;;;23.20;86.00;96787.44;5046600;28;20275;-64
2023/07/16 11:21:58;;;;;;;4.30;2.45;;;;;;;23.39;85.74;96791.03;5037769;28;20208;-63
2023/07/16 11:24:27;;;;;;;1.95;1.85;;;;;;;23.43;84.22;96789.59;5035300;28;20218;-63
2023/07/16 11:26:54;;;;;;;2.30;2.03;;;;;;;23.42;85.92;96795.22;5044983;28;20218;-63